sensor_id;sensor_type;location;lat;lon;timestamp;pressure;altitude;pressure_sealevel;temperature;humidity
61037;BME280;57313;47.040;15.498;2022-07-23T00:00:30;96901.41;;;20.90;100.00
61037;BME280;57313;47.040;15.498;2022-07-23T00:03:07;96896.28;;;20.88;100.00
61037;BME280;57313;47.040;15.498;2022-07-23T00:05:35;96909.00;;;20.85;100.00
61037;BME280;57313;47.040;15.498;2022-07-23T00:08:04;96909.34;;;20.82;100.00
61037;BME280;57313;47.040;15.498;2022-07-23T00:10:39;96894.16;;;20.84;100.00
61037;BME280;57313;47.040;15.498;2022-07-23T00:13:06;96886.84;;;20.86;100.00
61037;BME280;57313;47.040;15.498;2022-07-23T00:15:33;96895.44;;;20.88;100.00
61037;BME280;57313;47.040;15.498;2022-07-23T00:18:01;96891.50;;;20.84;100.00
61037;BME280;57313;47.040;15.498;2022-07-23T00:20:29;96879.09;;;20.84;100.00
61037;BME280;57313;47.040;15.498;2022-07-23T00:22:57;96882.56;;;20.85;100.00
61037;BME280;57313;47.040;15.498;2022-07-23T00:25:26;96869.66;;;20.82;100.00
61037;BME280;57313;47.040;15.498;2022-07-23T00:27:56;96873.47;;;20.79;100.00
61037;BME280;57313;47.040;15.498;2022-07-23T00:30:24;96868.84;;;20.81;100.00
61037;BME280;57313;47.040;15.498;2022-07-23T00:32:53;96871.31;;;20.83;100.00
61037;BME280;57313;47.040;15.498;2022-07-23T00:35:23;96869.81;;;20.80;100.00
61037;BME280;57313;47.040;15.498;2022-07-23T00:37:53;96872.00;;;20.76;100.00
61037;BME280;57313;47.040;15.498;2022-07-23T00:40:21;96870.19;;;20.69;100.00
61037;BME280;57313;47.040;15.498;2022-07-23T00:42:48;96868.16;;;20.62;100.00
61037;BME280;57313;47.040;15.498;2022-07-23T00:45:16;96868.03;;;20.56;100.00
61037;BME280;57313;47.040;15.498;2022-07-23T00:47:44;96868.84;;;20.48;100.00
61037;BME280;57313;47.040;15.498;2022-07-23T00:50:12;96875.28;;;20.37;100.00
61037;BME280;57313;47.040;15.498;2022-07-23T00:52:40;96875.13;;;20.31;100.00
61037;BME280;57313;47.040;15.498;2022-07-23T00:55:10;96878.44;;;20.24;100.00
61037;BME280;57313;47.040;15.498;2022-07-23T00:57:39;96873.97;;;20.25;100.00
61037;BME280;57313;47.040;15.498;2022-07-23T01:00:09;96887.50;;;20.22;100.00
61037;BME280;57313;47.040;15.498;2022-07-23T01:02:38;96878.59;;;20.23;100.00
61037;BME280;57313;47.040;15.498;2022-07-23T01:05:07;96882.88;;;20.24;100.00
61037;BME280;57313;47.040;15.498;2022-07-23T01:07:35;96880.25;;;20.24;100.00
61037;BME280;57313;47.040;15.498;2022-07-23T01:10:04;96887.03;;;20.26;100.00
61037;BME280;57313;47.040;15.498;2022-07-23T01:12:34;96881.91;;;20.25;100.00
61037;BME280;57313;47.040;15.498;2022-07-23T01:15:03;96885.53;;;20.24;100.00
61037;BME280;57313;47.040;15.498;2022-07-23T01:17:31;96890.97;;;20.22;100.00
61037;BME280;57313;47.040;15.498;2022-07-23T01:19:59;96882.41;;;20.20;100.00
61037;BME280;57313;47.040;15.498;2022-07-23T01:22:30;96891.13;;;20.21;100.00
61037;BME280;57313;47.040;15.498;2022-07-23T01:24:57;96885.03;;;20.20;100.00
61037;BME280;57313;47.040;15.498;2022-07-23T01:27:25;96885.69;;;20.22;100.00
61037;BME280;57313;47.040;15.498;2022-07-23T01:29:54;96870.66;;;20.23;100.00
61037;BME280;57313;47.040;15.498;2022-07-23T01:32:22;96878.13;;;20.27;100.00
61037;BME280;57313;47.040;15.498;2022-07-23T01:34:49;96884.88;;;20.30;100.00
61037;BME280;57313;47.040;15.498;2022-07-23T01:37:17;96877.59;;;20.24;100.00
61037;BME280;57313;47.040;15.498;2022-07-23T01:39:47;96875.97;;;20.23;100.00
61037;BME280;57313;47.040;15.498;2022-07-23T01:42:15;96868.03;;;20.23;100.00
61037;BME280;57313;47.040;15.498;2022-07-23T01:44:44;96866.53;;;20.20;100.00
61037;BME280;57313;47.040;15.498;2022-07-23T01:47:12;96863.22;;;20.18;100.00
61037;BME280;57313;47.040;15.498;2022-07-23T01:49:40;96853.63;;;20.17;100.00
61037;BME280;57313;47.040;15.498;2022-07-23T01:52:08;96853.31;;;20.12;100.00
61037;BME280;57313;47.040;15.498;2022-07-23T01:54:38;96860.41;;;20.12;100.00
61037;BME280;57313;47.040;15.498;2022-07-23T01:57:09;96851.66;;;20.11;100.00
61037;BME280;57313;47.040;15.498;2022-07-23T01:59:37;96853.81;;;20.07;100.00
61037;BME280;57313;47.040;15.498;2022-07-23T02:02:04;96851.31;;;20.06;100.00
61037;BME280;57313;47.040;15.498;2022-07-23T02:04:32;96856.09;;;20.02;100.00
61037;BME280;57313;47.040;15.498;2022-07-23T02:07:00;96849.00;;;20.03;100.00
61037;BME280;57313;47.040;15.498;2022-07-23T02:09:27;96853.28;;;20.04;100.00
61037;BME280;57313;47.040;15.498;2022-07-23T02:11:55;96858.25;;;19.99;100.00
61037;BME280;57313;47.040;15.498;2022-07-23T02:14:25;96861.38;;;19.94;100.00
61037;BME280;57313;47.040;15.498;2022-07-23T02:16:53;96863.53;;;19.90;100.00
61037;BME280;57313;47.040;15.498;2022-07-23T02:19:20;96862.03;;;19.88;100.00
61037;BME280;57313;47.040;15.498;2022-07-23T02:21:48;96858.56;;;19.87;100.00
61037;BME280;57313;47.040;15.498;2022-07-23T02:24:16;96855.94;;;19.87;100.00
61037;BME280;57313;47.040;15.498;2022-07-23T02:26:44;96856.25;;;19.84;100.00
61037;BME280;57313;47.040;15.498;2022-07-23T02:29:12;96848.16;;;19.86;100.00
61037;BME280;57313;47.040;15.498;2022-07-23T02:31:41;96850.81;;;19.86;100.00
61037;BME280;57313;47.040;15.498;2022-07-23T02:34:10;96853.94;;;19.81;100.00
61037;BME280;57313;47.040;15.498;2022-07-23T02:36:38;96851.91;;;19.75;100.00
61037;BME280;57313;47.040;15.498;2022-07-23T02:39:05;96863.63;;;19.72;100.00
61037;BME280;57313;47.040;15.498;2022-07-23T02:41:33;96852.56;;;19.69;100.00
61037;BME280;57313;47.040;15.498;2022-07-23T02:44:01;96856.00;;;19.69;100.00
61037;BME280;57313;47.040;15.498;2022-07-23T02:46:28;96854.19;;;19.70;100.00
61037;BME280;57313;47.040;15.498;2022-07-23T02:48:58;96850.22;;;19.66;100.00
61037;BME280;57313;47.040;15.498;2022-07-23T02:51:26;96854.72;;;19.73;100.00
61037;BME280;57313;47.040;15.498;2022-07-23T02:53:53;96846.09;;;19.71;100.00
61037;BME280;57313;47.040;15.498;2022-07-23T02:56:21;96843.28;;;19.73;100.00
61037;BME280;57313;47.040;15.498;2022-07-23T02:58:49;96849.44;;;19.73;100.00
61037;BME280;57313;47.040;15.498;2022-07-23T03:01:16;96844.97;;;19.74;100.00
61037;BME280;57313;47.040;15.498;2022-07-23T03:03:47;96839.47;;;19.59;100.00
61037;BME280;57313;47.040;15.498;2022-07-23T03:06:16;96845.09;;;19.56;100.00
61037;BME280;57313;47.040;15.498;2022-07-23T03:08:43;96843.75;;;19.52;100.00
61037;BME280;57313;47.040;15.498;2022-07-23T03:11:11;96840.78;;;19.47;100.00
61037;BME280;57313;47.040;15.498;2022-07-23T03:13:39;96841.09;;;19.44;100.00
61037;BME280;57313;47.040;15.498;2022-07-23T03:16:07;96837.13;;;19.40;100.00
61037;BME280;57313;47.040;15.498;2022-07-23T03:18:36;96839.09;;;19.37;100.00
61037;BME280;57313;47.040;15.498;2022-07-23T03:21:07;96834.63;;;19.30;100.00
61037;BME280;57313;47.040;15.498;2022-07-23T03:23:37;96840.56;;;19.32;100.00
61037;BME280;57313;47.040;15.498;2022-07-23T03:26:05;96830.31;;;19.29;100.00
61037;BME280;57313;47.040;15.498;2022-07-23T03:28:33;96835.59;;;19.29;100.00
61037;BME280;57313;47.040;15.498;2022-07-23T03:31:00;96831.28;;;19.28;100.00
61037;BME280;57313;47.040;15.498;2022-07-23T03:33:28;96831.44;;;19.26;100.00
61037;BME280;57313;47.040;15.498;2022-07-23T03:35:56;96840.69;;;19.22;100.00
61037;BME280;57313;47.040;15.498;2022-07-23T03:38:23;96823.50;;;19.18;100.00
61037;BME280;57313;47.040;15.498;2022-07-23T03:40:53;96831.56;;;19.16;100.00
61037;BME280;57313;47.040;15.498;2022-07-23T03:43:21;96832.06;;;19.12;100.00
61037;BME280;57313;47.040;15.498;2022-07-23T03:45:48;96833.72;;;19.13;100.00
61037;BME280;57313;47.040;15.498;2022-07-23T03:48:15;96833.19;;;19.09;100.00
61037;BME280;57313;47.040;15.498;2022-07-23T03:50:43;96831.03;;;19.05;100.00
61037;BME280;57313;47.040;15.498;2022-07-23T03:53:11;96844.38;;;19.03;100.00
61037;BME280;57313;47.040;15.498;2022-07-23T03:55:39;96846.34;;;19.01;100.00
61037;BME280;57313;47.040;15.498;2022-07-23T03:58:08;96852.44;;;19.01;100.00
61037;BME280;57313;47.040;15.498;2022-07-23T04:00:36;96859.38;;;19.02;100.00
61037;BME280;57313;47.040;15.498;2022-07-23T04:03:04;96853.94;;;19.04;100.00
61037;BME280;57313;47.040;15.498;2022-07-23T04:05:31;96858.72;;;19.00;100.00
61037;BME280;57313;47.040;15.498;2022-07-23T04:07:59;96861.53;;;18.99;100.00
61037;BME280;57313;47.040;15.498;2022-07-23T04:10:26;96864.09;;;18.91;100.00
61037;BME280;57313;47.040;15.498;2022-07-23T04:12:54;96876.78;;;18.87;100.00
61037;BME280;57313;47.040;15.498;2022-07-23T04:15:22;96875.81;;;18.88;100.00
61037;BME280;57313;47.040;15.498;2022-07-23T04:17:50;96876.78;;;18.87;100.00
61037;BME280;57313;47.040;15.498;2022-07-23T04:20:17;96875.41;;;18.83;100.00
61037;BME280;57313;47.040;15.498;2022-07-23T04:22:45;96877.53;;;18.79;100.00
61037;BME280;57313;47.040;15.498;2022-07-23T04:25:13;96877.03;;;18.76;100.00
61037;BME280;57313;47.040;15.498;2022-07-23T04:27:40;96873.56;;;18.75;100.00
61037;BME280;57313;47.040;15.498;2022-07-23T04:30:09;96872.91;;;18.81;100.00
61037;BME280;57313;47.040;15.498;2022-07-23T04:32:38;96887.03;;;18.90;100.00
61037;BME280;57313;47.040;15.498;2022-07-23T04:35:06;96879.78;;;18.92;100.00
61037;BME280;57313;47.040;15.498;2022-07-23T04:37:33;96880.97;;;18.98;100.00
61037;BME280;57313;47.040;15.498;2022-07-23T04:40:00;96870.91;;;19.01;100.00
61037;BME280;57313;47.040;15.498;2022-07-23T04:42:27;96880.03;;;19.07;100.00
61037;BME280;57313;47.040;15.498;2022-07-23T04:44:55;96881.06;;;19.14;100.00
61037;BME280;57313;47.040;15.498;2022-07-23T04:47:22;96882.06;;;19.22;100.00
61037;BME280;57313;47.040;15.498;2022-07-23T04:49:56;96864.78;;;19.27;100.00
61037;BME280;57313;47.040;15.498;2022-07-23T04:52:24;96869.59;;;19.32;100.00
61037;BME280;57313;47.040;15.498;2022-07-23T04:54:51;96865.50;;;19.37;100.00
61037;BME280;57313;47.040;15.498;2022-07-23T04:57:19;96859.44;;;19.45;100.00
61037;BME280;57313;47.040;15.498;2022-07-23T04:59:46;96858.94;;;19.50;100.00
61037;BME280;57313;47.040;15.498;2022-07-23T05:02:14;96861.91;;;19.55;100.00
61037;BME280;57313;47.040;15.498;2022-07-23T05:04:42;96857.47;;;19.64;100.00
61037;BME280;57313;47.040;15.498;2022-07-23T05:07:12;96865.44;;;19.72;100.00
61037;BME280;57313;47.040;15.498;2022-07-23T05:09:40;96870.75;;;19.80;100.00
61037;BME280;57313;47.040;15.498;2022-07-23T05:12:08;96864.66;;;19.80;100.00
61037;BME280;57313;47.040;15.498;2022-07-23T05:14:35;96868.63;;;19.84;100.00
61037;BME280;57313;47.040;15.498;2022-07-23T05:17:03;96860.69;;;19.84;100.00
61037;BME280;57313;47.040;15.498;2022-07-23T05:19:31;96877.06;;;19.96;100.00
61037;BME280;57313;47.040;15.498;2022-07-23T05:21:59;96870.31;;;20.01;100.00
61037;BME280;57313;47.040;15.498;2022-07-23T05:24:28;96868.81;;;20.07;100.00
61037;BME280;57313;47.040;15.498;2022-07-23T05:26:56;96869.00;;;20.14;100.00
61037;BME280;57313;47.040;15.498;2022-07-23T05:29:25;96881.25;;;20.23;100.00
61037;BME280;57313;47.040;15.498;2022-07-23T05:31:53;96872.50;;;20.31;100.00
61037;BME280;57313;47.040;15.498;2022-07-23T05:34:20;96864.03;;;20.35;100.00
61037;BME280;57313;47.040;15.498;2022-07-23T05:36:47;96855.97;;;20.45;100.00
61037;BME280;57313;47.040;15.498;2022-07-23T05:39:14;96857.59;;;20.54;100.00
61037;BME280;57313;47.040;15.498;2022-07-23T05:41:43;96865.53;;;20.62;100.00
61037;BME280;57313;47.040;15.498;2022-07-23T05:44:11;96864.88;;;20.69;100.00
61037;BME280;57313;47.040;15.498;2022-07-23T05:46:38;96853.81;;;20.73;100.00
61037;BME280;57313;47.040;15.498;2022-07-23T05:49:05;96868.03;;;20.80;100.00
61037;BME280;57313;47.040;15.498;2022-07-23T05:51:34;96859.41;;;20.87;100.00
61037;BME280;57313;47.040;15.498;2022-07-23T05:54:01;96863.00;;;20.94;100.00
61037;BME280;57313;47.040;15.498;2022-07-23T05:56:29;96869.28;;;21.01;100.00
61037;BME280;57313;47.040;15.498;2022-07-23T05:58:59;96862.50;;;21.07;100.00
61037;BME280;57313;47.040;15.498;2022-07-23T06:01:27;96860.97;;;21.12;100.00
61037;BME280;57313;47.040;15.498;2022-07-23T06:03:55;96857.66;;;21.19;100.00
61037;BME280;57313;47.040;15.498;2022-07-23T06:06:22;96858.63;;;21.26;100.00
61037;BME280;57313;47.040;15.498;2022-07-23T06:08:50;96864.88;;;21.33;100.00
61037;BME280;57313;47.040;15.498;2022-07-23T06:11:17;96866.66;;;21.41;100.00
61037;BME280;57313;47.040;15.498;2022-07-23T06:13:45;96869.16;;;21.50;100.00
61037;BME280;57313;47.040;15.498;2022-07-23T06:16:14;96848.25;;;21.56;100.00
61037;BME280;57313;47.040;15.498;2022-07-23T06:18:42;96855.16;;;21.65;100.00
61037;BME280;57313;47.040;15.498;2022-07-23T06:21:10;96858.94;;;21.71;100.00
61037;BME280;57313;47.040;15.498;2022-07-23T06:23:57;96854.59;;;21.78;100.00
61037;BME280;57313;47.040;15.498;2022-07-23T06:26:25;96855.56;;;21.85;100.00
61037;BME280;57313;47.040;15.498;2022-07-23T06:28:52;96865.09;;;21.94;100.00
61037;BME280;57313;47.040;15.498;2022-07-23T06:31:22;96858.91;;;22.02;100.00
61037;BME280;57313;47.040;15.498;2022-07-23T06:33:49;96856.38;;;22.09;100.00
61037;BME280;57313;47.040;15.498;2022-07-23T06:36:16;96852.66;;;22.18;100.00
61037;BME280;57313;47.040;15.498;2022-07-23T06:38:44;96869.34;;;22.27;100.00
61037;BME280;57313;47.040;15.498;2022-07-23T06:41:11;96859.50;;;22.35;100.00
61037;BME280;57313;47.040;15.498;2022-07-23T06:43:39;96858.16;;;22.39;100.00
61037;BME280;57313;47.040;15.498;2022-07-23T06:46:06;96861.59;;;22.48;100.00
61037;BME280;57313;47.040;15.498;2022-07-23T06:48:36;96865.16;;;22.55;100.00
61037;BME280;57313;47.040;15.498;2022-07-23T06:51:04;96864.53;;;22.68;100.00
61037;BME280;57313;47.040;15.498;2022-07-23T06:53:31;96880.50;;;22.83;100.00
61037;BME280;57313;47.040;15.498;2022-07-23T06:55:59;96878.41;;;22.93;100.00
61037;BME280;57313;47.040;15.498;2022-07-23T06:58:26;96871.34;;;23.01;100.00
61037;BME280;57313;47.040;15.498;2022-07-23T07:00:53;96873.41;;;23.14;100.00
61037;BME280;57313;47.040;15.498;2022-07-23T07:03:20;96873.69;;;23.19;100.00
61037;BME280;57313;47.040;15.498;2022-07-23T07:05:49;96869.38;;;23.33;100.00
61037;BME280;57313;47.040;15.498;2022-07-23T07:08:16;96869.53;;;23.46;100.00
61037;BME280;57313;47.040;15.498;2022-07-23T07:10:43;96872.47;;;23.51;100.00
61037;BME280;57313;47.040;15.498;2022-07-23T07:13:10;96866.94;;;23.67;100.00
61037;BME280;57313;47.040;15.498;2022-07-23T07:15:38;96864.81;;;23.78;100.00
61037;BME280;57313;47.040;15.498;2022-07-23T07:18:05;96870.69;;;23.88;100.00
61037;BME280;57313;47.040;15.498;2022-07-23T07:20:32;96869.38;;;23.99;100.00
61037;BME280;57313;47.040;15.498;2022-07-23T07:23:02;96868.63;;;24.05;97.55
61037;BME280;57313;47.040;15.498;2022-07-23T07:25:29;96877.09;;;24.15;99.64
61037;BME280;57313;47.040;15.498;2022-07-23T07:27:57;96883.13;;;24.24;98.67
61037;BME280;57313;47.040;15.498;2022-07-23T07:30:24;96882.16;;;24.32;97.55
61037;BME280;57313;47.040;15.498;2022-07-23T07:32:59;96872.59;;;24.37;100.00
61037;BME280;57313;47.040;15.498;2022-07-23T07:35:27;96885.41;;;24.49;96.49
61037;BME280;57313;47.040;15.498;2022-07-23T07:37:55;96884.34;;;24.50;94.79
61037;BME280;57313;47.040;15.498;2022-07-23T07:40:23;96885.63;;;24.54;95.72
61037;BME280;57313;47.040;15.498;2022-07-23T07:42:57;96890.59;;;24.57;96.06
61037;BME280;57313;47.040;15.498;2022-07-23T07:45:25;96894.53;;;24.61;98.55
61037;BME280;57313;47.040;15.498;2022-07-23T07:47:53;96897.50;;;24.73;95.66
61037;BME280;57313;47.040;15.498;2022-07-23T07:50:22;96895.50;;;24.82;100.00
61037;BME280;57313;47.040;15.498;2022-07-23T07:52:49;96884.50;;;24.91;93.52
61037;BME280;57313;47.040;15.498;2022-07-23T07:55:17;96893.81;;;25.02;89.27
61037;BME280;57313;47.040;15.498;2022-07-23T07:57:46;96898.56;;;25.07;90.20
61037;BME280;57313;47.040;15.498;2022-07-23T08:00:34;96897.59;;;25.21;86.27
61037;BME280;57313;47.040;15.498;2022-07-23T08:03:01;96900.16;;;25.30;86.55
61037;BME280;57313;47.040;15.498;2022-07-23T08:05:30;96902.88;;;25.36;85.98
61037;BME280;57313;47.040;15.498;2022-07-23T08:07:58;96907.63;;;25.48;88.72
61037;BME280;57313;47.040;15.498;2022-07-23T08:10:27;96902.56;;;25.59;86.81
61037;BME280;57313;47.040;15.498;2022-07-23T08:12:58;96905.25;;;25.66;88.14
61037;BME280;57313;47.040;15.498;2022-07-23T08:15:26;96912.66;;;25.71;92.07
61037;BME280;57313;47.040;15.498;2022-07-23T08:17:55;96911.25;;;25.75;92.29
61037;BME280;57313;47.040;15.498;2022-07-23T08:20:23;96909.41;;;25.82;96.05
61037;BME280;57313;47.040;15.498;2022-07-23T08:22:53;96915.59;;;25.89;95.66
61037;BME280;57313;47.040;15.498;2022-07-23T08:25:23;96918.56;;;26.01;92.93
61037;BME280;57313;47.040;15.498;2022-07-23T08:27:52;96907.91;;;26.08;90.47
61037;BME280;57313;47.040;15.498;2022-07-23T08:30:23;96905.88;;;26.17;91.50
61037;BME280;57313;47.040;15.498;2022-07-23T08:32:53;96899.34;;;26.26;90.07
61037;BME280;57313;47.040;15.498;2022-07-23T08:35:27;96897.88;;;26.37;89.07
61037;BME280;57313;47.040;15.498;2022-07-23T08:37:55;96897.91;;;26.43;87.55
61037;BME280;57313;47.040;15.498;2022-07-23T08:40:25;96901.59;;;26.49;88.31
61037;BME280;57313;47.040;15.498;2022-07-23T08:42:53;96900.97;;;26.54;89.86
61037;BME280;57313;47.040;15.498;2022-07-23T08:45:24;96910.03;;;26.59;84.32
61037;BME280;57313;47.040;15.498;2022-07-23T08:47:53;96897.91;;;26.63;83.25
61037;BME280;57313;47.040;15.498;2022-07-23T08:50:22;96901.66;;;26.76;88.05
61037;BME280;57313;47.040;15.498;2022-07-23T08:52:51;96900.00;;;26.81;78.24
61037;BME280;57313;47.040;15.498;2022-07-23T08:55:20;96893.63;;;26.89;80.68
61037;BME280;57313;47.040;15.498;2022-07-23T08:57:50;96893.63;;;26.96;82.48
61037;BME280;57313;47.040;15.498;2022-07-23T09:00:19;96895.88;;;27.05;79.33
61037;BME280;57313;47.040;15.498;2022-07-23T09:02:49;96890.91;;;27.16;78.42
61037;BME280;57313;47.040;15.498;2022-07-23T09:05:17;96886.75;;;27.27;80.79
61037;BME280;57313;47.040;15.498;2022-07-23T09:08:09;96886.56;;;27.42;86.75
61037;BME280;57313;47.040;15.498;2022-07-23T09:10:44;96888.78;;;27.51;77.42
61037;BME280;57313;47.040;15.498;2022-07-23T09:13:31;96890.00;;;27.55;78.02
61037;BME280;57313;47.040;15.498;2022-07-23T09:16:01;96895.97;;;27.57;73.59
61037;BME280;57313;47.040;15.498;2022-07-23T09:18:39;96889.38;;;27.60;72.08
61037;BME280;57313;47.040;15.498;2022-07-23T09:21:12;96893.88;;;27.66;72.09
61037;BME280;57313;47.040;15.498;2022-07-23T09:23:41;96894.28;;;27.70;78.52
61037;BME280;57313;47.040;15.498;2022-07-23T09:26:21;96889.34;;;27.73;79.27
61037;BME280;57313;47.040;15.498;2022-07-23T09:28:54;96890.97;;;27.74;76.12
61037;BME280;57313;47.040;15.498;2022-07-23T09:31:22;96884.97;;;27.79;77.80
61037;BME280;57313;47.040;15.498;2022-07-23T09:33:51;96883.31;;;27.85;75.79
61037;BME280;57313;47.040;15.498;2022-07-23T09:36:27;96883.34;;;27.78;73.49
61037;BME280;57313;47.040;15.498;2022-07-23T09:38:55;96886.63;;;27.80;77.25
61037;BME280;57313;47.040;15.498;2022-07-23T09:41:22;96898.72;;;27.89;74.43
61037;BME280;57313;47.040;15.498;2022-07-23T09:43:55;96902.41;;;27.95;71.68
61037;BME280;57313;47.040;15.498;2022-07-23T09:46:24;96907.34;;;27.98;75.01
61037;BME280;57313;47.040;15.498;2022-07-23T09:48:55;96912.88;;;28.03;74.29
61037;BME280;57313;47.040;15.498;2022-07-23T09:51:24;96907.75;;;27.95;70.22
61037;BME280;57313;47.040;15.498;2022-07-23T09:53:51;96916.22;;;27.99;71.03
61037;BME280;57313;47.040;15.498;2022-07-23T09:56:20;96903.63;;;27.99;66.87
61037;BME280;57313;47.040;15.498;2022-07-23T09:58:54;96884.03;;;28.05;68.29
61037;BME280;57313;47.040;15.498;2022-07-23T10:01:21;96885.06;;;28.11;64.49
61037;BME280;57313;47.040;15.498;2022-07-23T10:03:49;96880.88;;;28.15;60.61
61037;BME280;57313;47.040;15.498;2022-07-23T10:06:19;96879.44;;;28.19;64.22
61037;BME280;57313;47.040;15.498;2022-07-23T10:08:48;96875.31;;;28.23;63.93
61037;BME280;57313;47.040;15.498;2022-07-23T10:11:18;96881.84;;;28.27;59.33
61037;BME280;57313;47.040;15.498;2022-07-23T10:13:45;96874.22;;;28.31;62.84
61037;BME280;57313;47.040;15.498;2022-07-23T10:16:12;96870.84;;;28.42;61.78
61037;BME280;57313;47.040;15.498;2022-07-23T10:18:53;96868.28;;;28.54;58.76
61037;BME280;57313;47.040;15.498;2022-07-23T10:21:27;96865.34;;;28.62;61.73
61037;BME280;57313;47.040;15.498;2022-07-23T10:24:08;96871.91;;;28.67;55.18
61037;BME280;57313;47.040;15.498;2022-07-23T10:26:44;96869.22;;;28.67;58.19
61037;BME280;57313;47.040;15.498;2022-07-23T10:29:23;96864.25;;;28.70;58.28
61037;BME280;57313;47.040;15.498;2022-07-23T10:31:58;96869.53;;;28.77;60.08
61037;BME280;57313;47.040;15.498;2022-07-23T10:34:38;96872.34;;;28.89;58.11
61037;BME280;57313;47.040;15.498;2022-07-23T10:37:13;96882.53;;;28.98;56.04
61037;BME280;57313;47.040;15.498;2022-07-23T10:39:47;96872.59;;;29.06;57.92
61037;BME280;57313;47.040;15.498;2022-07-23T10:42:16;96864.03;;;29.15;53.78
61037;BME280;57313;47.040;15.498;2022-07-23T10:44:45;96865.78;;;29.28;55.62
61037;BME280;57313;47.040;15.498;2022-07-23T10:47:21;96869.22;;;29.35;52.47
61037;BME280;57313;47.040;15.498;2022-07-23T10:49:52;96864.50;;;29.31;50.76
61037;BME280;57313;47.040;15.498;2022-07-23T10:52:35;96871.66;;;29.37;54.22
61037;BME280;57313;47.040;15.498;2022-07-23T10:55:41;96867.13;;;29.38;53.64
61037;BME280;57313;47.040;15.498;2022-07-23T10:58:09;96867.41;;;29.48;53.93
61037;BME280;57313;47.040;15.498;2022-07-23T11:00:37;96872.25;;;29.58;54.86
61037;BME280;57313;47.040;15.498;2022-07-23T11:03:30;96864.72;;;29.66;51.17
61037;BME280;57313;47.040;15.498;2022-07-23T11:05:58;96868.78;;;29.69;49.70
61037;BME280;57313;47.040;15.498;2022-07-23T11:08:28;96863.19;;;29.70;47.95
61037;BME280;57313;47.040;15.498;2022-07-23T11:11:08;96849.09;;;29.75;48.72
61037;BME280;57313;47.040;15.498;2022-07-23T11:13:47;96862.16;;;29.90;50.93
61037;BME280;57313;47.040;15.498;2022-07-23T11:16:20;96866.53;;;30.03;52.46
61037;BME280;57313;47.040;15.498;2022-07-23T11:19:07;96855.22;;;30.13;50.18
61037;BME280;57313;47.040;15.498;2022-07-23T11:21:47;96856.31;;;30.23;50.37
61037;BME280;57313;47.040;15.498;2022-07-23T11:24:22;96840.69;;;30.32;48.08
61037;BME280;57313;47.040;15.498;2022-07-23T11:26:56;96842.25;;;30.40;49.15
61037;BME280;57313;47.040;15.498;2022-07-23T11:29:48;96841.91;;;30.48;47.06
61037;BME280;57313;47.040;15.498;2022-07-23T11:32:23;96848.81;;;30.56;50.30
61037;BME280;57313;47.040;15.498;2022-07-23T11:34:52;96839.97;;;30.67;47.42
61037;BME280;57313;47.040;15.498;2022-07-23T11:37:32;96829.44;;;30.77;45.94
61037;BME280;57313;47.040;15.498;2022-07-23T11:40:05;96831.06;;;30.78;45.28
61037;BME280;57313;47.040;15.498;2022-07-23T11:42:34;96826.16;;;30.87;47.59
61037;BME280;57313;47.040;15.498;2022-07-23T11:45:02;96823.13;;;30.95;44.10
61037;BME280;57313;47.040;15.498;2022-07-23T11:47:29;96814.25;;;31.07;44.65
61037;BME280;57313;47.040;15.498;2022-07-23T11:49:58;96806.97;;;31.07;44.09
61037;BME280;57313;47.040;15.498;2022-07-23T11:52:27;96817.41;;;31.16;42.57
61037;BME280;57313;47.040;15.498;2022-07-23T11:54:56;96815.88;;;31.08;42.73
61037;BME280;57313;47.040;15.498;2022-07-23T11:57:27;96815.28;;;31.18;45.66
61037;BME280;57313;47.040;15.498;2022-07-23T11:59:57;96801.22;;;31.27;43.50
61037;BME280;57313;47.040;15.498;2022-07-23T12:02:24;96799.91;;;31.42;44.58
61037;BME280;57313;47.040;15.498;2022-07-23T12:04:52;96795.53;;;31.53;42.67
61037;BME280;57313;47.040;15.498;2022-07-23T12:07:28;96799.50;;;31.62;44.67
61037;BME280;57313;47.040;15.498;2022-07-23T12:09:57;96796.00;;;31.61;45.15
61037;BME280;57313;47.040;15.498;2022-07-23T12:12:26;96791.94;;;31.59;43.21
61037;BME280;57313;47.040;15.498;2022-07-23T12:14:55;96794.09;;;31.62;45.61
61037;BME280;57313;47.040;15.498;2022-07-23T12:17:28;96788.84;;;31.67;45.26
61037;BME280;57313;47.040;15.498;2022-07-23T12:19:58;96783.69;;;31.65;46.12
61037;BME280;57313;47.040;15.498;2022-07-23T12:22:34;96789.25;;;31.76;43.33
61037;BME280;57313;47.040;15.498;2022-07-23T12:25:05;96788.22;;;31.77;43.54
61037;BME280;57313;47.040;15.498;2022-07-23T12:27:34;96782.13;;;31.70;43.04
61037;BME280;57313;47.040;15.498;2022-07-23T12:30:22;96782.53;;;31.61;42.11
61037;BME280;57313;47.040;15.498;2022-07-23T12:32:51;96780.16;;;31.65;45.11
61037;BME280;57313;47.040;15.498;2022-07-23T12:35:18;96773.75;;;31.66;43.67
61037;BME280;57313;47.040;15.498;2022-07-23T12:37:49;96779.38;;;31.64;42.64
61037;BME280;57313;47.040;15.498;2022-07-23T12:40:25;96784.09;;;31.57;43.64
61037;BME280;57313;47.040;15.498;2022-07-23T12:42:56;96776.81;;;31.58;43.66
61037;BME280;57313;47.040;15.498;2022-07-23T12:45:24;96775.72;;;31.71;45.14
61037;BME280;57313;47.040;15.498;2022-07-23T12:47:57;96774.75;;;31.77;43.66
61037;BME280;57313;47.040;15.498;2022-07-23T12:50:49;96772.50;;;31.85;45.61
61037;BME280;57313;47.040;15.498;2022-07-23T12:53:19;96775.50;;;31.89;43.23
61037;BME280;57313;47.040;15.498;2022-07-23T12:55:56;96760.25;;;31.95;44.03
61037;BME280;57313;47.040;15.498;2022-07-23T12:58:46;96764.19;;;32.04;44.43